createdAt,value
2019-05-02T00:00:56.298Z,14.30
2019-05-02T00:01:56.123Z,14.90
2019-05-02T00:02:59.839Z,14.30
2019-05-02T00:03:56.124Z,15.20
2019-05-02T00:04:57.082Z,14.70
2019-05-02T00:05:56.151Z,15.20
2019-05-02T00:06:56.161Z,14.60
2019-05-02T00:07:58.484Z,15.50
2019-05-02T00:08:56.176Z,15.40
2019-05-02T00:09:56.213Z,15.50
2019-05-02T00:10:56.259Z,15.90
2019-05-02T00:11:58.896Z,14.70
2019-05-02T00:12:56.220Z,15.60
2019-05-02T00:13:56.243Z,15.60
2019-05-02T00:15:01.347Z,15.30
2019-05-02T00:15:56.262Z,15.70
2019-05-02T00:16:56.295Z,15.90
2019-05-02T00:17:56.844Z,15.10
2019-05-02T00:18:56.319Z,15.80
2019-05-02T00:19:56.376Z,15.90
2019-05-02T00:20:57.099Z,15.70
2019-05-02T00:21:56.367Z,15.70
2019-05-02T00:22:56.352Z,16.30
2019-05-02T00:23:59.186Z,16.00
2019-05-02T00:24:56.376Z,15.30
2019-05-02T00:25:56.405Z,16.30
2019-05-02T00:27:01.296Z,16.50
2019-05-02T00:27:56.424Z,15.80
2019-05-02T00:28:56.440Z,17.00
2019-05-02T00:29:58.625Z,17.10
2019-05-02T00:30:56.450Z,16.10
2019-05-02T00:31:56.479Z,16.80
2019-05-02T00:32:58.376Z,17.30
2019-05-02T00:33:56.680Z,17.30
2019-05-02T00:34:56.523Z,17.10
2019-05-02T00:35:56.519Z,17.30
2019-05-02T00:36:56.533Z,17.50
2019-05-02T00:37:57.398Z,16.80
2019-05-02T00:38:56.562Z,17.10
2019-05-02T00:39:56.577Z,16.80
2019-05-02T00:40:57.353Z,16.60
2019-05-02T00:41:56.599Z,16.60
2019-05-02T00:42:58.362Z,17.00
2019-05-02T00:43:56.673Z,17.20
2019-05-02T00:44:56.636Z,16.90
2019-05-02T00:45:59.772Z,16.80
2019-05-02T00:46:56.651Z,16.80
2019-05-02T00:47:56.668Z,17.40
2019-05-02T00:48:59.922Z,17.00
2019-05-02T00:49:56.695Z,16.60
2019-05-02T00:50:56.692Z,16.80
2019-05-02T00:52:56.814Z,17.60
2019-05-02T00:53:56.739Z,17.30
2019-05-02T00:54:58.723Z,17.40
2019-05-02T00:55:56.768Z,16.40
2019-05-02T00:56:56.767Z,17.20
2019-05-02T00:57:56.957Z,17.40
2019-05-02T00:58:56.800Z,16.60
2019-05-02T00:59:56.817Z,16.80
2019-05-02T01:00:56.821Z,17.40
2019-05-02T01:02:00.163Z,17.10
2019-05-02T01:02:56.847Z,17.80
2019-05-02T01:03:56.868Z,18.60
2019-05-02T01:06:56.920Z,17.10
2019-05-02T01:08:01.216Z,16.60
2019-05-02T01:08:56.925Z,16.90
2019-05-02T01:09:56.954Z,17.80
2019-05-02T01:10:58.051Z,17.70
2019-05-02T01:11:56.967Z,17.40
2019-05-02T01:12:56.993Z,17.60
2019-05-02T01:13:57.705Z,17.30
2019-05-02T01:14:57.001Z,18.80
2019-05-02T01:15:57.008Z,18.20
2019-05-02T01:16:57.042Z,18.60
2019-05-02T01:18:00.999Z,18.40
2019-05-02T01:18:57.080Z,18.10
2019-05-02T01:19:57.137Z,19.40
2019-05-02T01:20:58.168Z,18.70
2019-05-02T01:21:57.089Z,18.40
2019-05-02T01:22:57.094Z,18.40
2019-05-02T01:23:58.978Z,19.20
2019-05-02T01:24:57.889Z,18.10
2019-05-02T01:25:57.195Z,20.40
2019-05-02T01:26:59.897Z,18.70
2019-05-02T01:27:57.190Z,18.80
2019-05-02T01:28:57.164Z,19.30
2019-05-02T01:30:01.379Z,20.40
2019-05-02T01:30:57.196Z,19.10
2019-05-02T01:31:57.213Z,19.40
2019-05-02T01:33:01.317Z,19.90
2019-05-02T01:33:57.224Z,20.50
2019-05-02T01:34:57.257Z,20.50
2019-05-02T01:35:57.249Z,20.50
2019-05-02T01:36:57.305Z,20.40
2019-05-02T01:37:57.361Z,21.20
2019-05-02T01:38:57.342Z,19.50
2019-05-02T01:39:57.948Z,21.10
2019-05-02T01:40:57.308Z,19.10
2019-05-02T01:42:00.004Z,19.70
2019-05-02T01:42:57.334Z,21.40
2019-05-02T01:44:00.233Z,20.50
2019-05-02T01:44:57.416Z,21.60
2019-05-02T01:45:57.369Z,19.80
2019-05-02T01:46:58.834Z,19.80
2019-05-02T01:47:57.397Z,20.70
2019-05-02T01:48:57.417Z,21.00
2019-05-02T01:49:59.214Z,20.20
2019-05-02T01:50:57.440Z,19.90
2019-05-02T01:51:57.444Z,20.80
2019-05-02T01:52:58.521Z,19.80
2019-05-02T01:53:57.466Z,20.90
2019-05-02T01:54:58.158Z,20.70
2019-05-02T01:55:59.380Z,21.00
2019-05-02T01:56:57.687Z,21.00
2019-05-02T01:57:57.529Z,19.90
2019-05-02T01:58:58.870Z,20.50
2019-05-02T01:59:57.540Z,20.90
2019-05-02T02:00:57.668Z,21.40
2019-05-02T02:01:58.022Z,20.40
2019-05-02T02:02:57.578Z,21.50
2019-05-02T02:03:57.584Z,22.00
2019-05-02T02:04:58.076Z,20.60
2019-05-02T02:05:57.626Z,20.80
2019-05-02T02:06:57.640Z,19.90
2019-05-02T02:07:57.649Z,21.80
2019-05-02T02:08:57.678Z,21.00
2019-05-02T02:09:57.855Z,21.20
2019-05-02T02:10:58.261Z,22.10
2019-05-02T02:11:57.705Z,21.10
2019-05-02T02:13:04.800Z,21.00
2019-05-02T02:13:57.717Z,20.70
2019-05-02T02:14:57.756Z,20.80
2019-05-02T02:16:00.123Z,22.00
2019-05-02T02:16:57.744Z,20.60
2019-05-02T02:17:57.770Z,21.50
2019-05-02T02:18:58.973Z,22.20
2019-05-02T02:19:57.785Z,21.20
2019-05-02T02:20:57.799Z,21.70
2019-05-02T02:22:02.816Z,21.90
2019-05-02T02:22:57.835Z,23.50
2019-05-02T02:23:57.828Z,22.10
2019-05-02T02:25:01.013Z,22.50
2019-05-02T02:25:57.875Z,22.30
2019-05-02T02:26:57.941Z,22.40
2019-05-02T02:27:59.678Z,21.90
2019-05-02T02:28:58.337Z,22.30
2019-05-02T02:29:57.906Z,22.20
2019-05-02T02:31:04.952Z,20.90
2019-05-02T02:31:57.926Z,22.40
2019-05-02T02:33:00.669Z,22.10
2019-05-02T02:33:57.972Z,21.70
2019-05-02T02:35:03.381Z,22.30
2019-05-02T02:35:58.013Z,21.50
2019-05-02T02:36:57.998Z,22.50
2019-05-02T02:37:58.023Z,22.60
2019-05-02T02:38:58.049Z,22.90
2019-05-02T02:39:58.056Z,22.50
2019-05-02T02:40:58.193Z,23.20
2019-05-02T02:41:58.172Z,22.30
2019-05-02T02:43:12.637Z,22.40
2019-05-02T02:44:00.499Z,22.20
2019-05-02T02:44:58.091Z,22.20
2019-05-02T02:45:59.728Z,20.90
2019-05-02T02:46:58.124Z,21.80
2019-05-02T02:48:00.031Z,22.50
2019-05-02T02:48:58.134Z,22.40
2019-05-02T02:50:02.292Z,22.30
2019-05-02T02:50:58.159Z,22.50
2019-05-02T02:52:04.266Z,22.90
2019-05-02T02:52:58.191Z,22.50
2019-05-02T02:54:04.331Z,22.90
2019-05-02T02:54:58.217Z,21.00
2019-05-02T02:56:01.648Z,22.60
2019-05-02T02:56:58.252Z,22.50
2019-05-02T02:58:04.226Z,23.10
2019-05-02T02:58:58.728Z,23.40
2019-05-02T03:00:06.742Z,24.20
2019-05-02T03:00:58.559Z,23.30
2019-05-02T03:02:09.214Z,23.70
2019-05-02T03:02:58.308Z,24.30
2019-05-02T03:04:02.145Z,24.20
2019-05-02T03:04:58.366Z,24.80
2019-05-02T03:05:58.948Z,23.60
2019-05-02T03:06:58.358Z,25.60
2019-05-02T03:07:59.626Z,24.00
2019-05-02T03:08:58.396Z,24.50
2019-05-02T03:09:59.547Z,24.70
2019-05-02T03:10:58.429Z,24.40
2019-05-02T03:12:02.017Z,24.20
2019-05-02T03:12:58.435Z,23.80
2019-05-02T03:14:06.068Z,25.60
2019-05-02T03:14:58.876Z,24.60
2019-05-02T03:16:00.484Z,24.20
2019-05-02T03:16:58.495Z,24.40
2019-05-02T03:17:59.930Z,24.10
2019-05-02T03:18:58.513Z,25.20
2019-05-02T03:20:01.177Z,24.60
2019-05-02T03:20:58.537Z,24.60
2019-05-02T03:22:04.054Z,23.80
2019-05-02T03:22:58.581Z,24.50
2019-05-02T03:24:03.394Z,24.50
2019-05-02T03:24:58.591Z,24.90
2019-05-02T03:25:58.605Z,25.00
2019-05-02T03:26:58.856Z,24.40
2019-05-02T03:27:58.616Z,25.30
2019-05-02T03:29:00.799Z,25.60
2019-05-02T03:29:58.636Z,25.60
2019-05-02T03:30:58.684Z,24.20
2019-05-02T03:32:13.472Z,24.90
2019-05-02T03:33:06.063Z,24.70
2019-05-02T03:34:00.807Z,24.70
2019-05-02T03:34:58.765Z,25.60
2019-05-02T03:35:59.755Z,25.40
2019-05-02T03:37:03.492Z,25.20
2019-05-02T03:37:58.748Z,26.10
2019-05-02T03:38:58.778Z,24.80
2019-05-02T03:40:00.725Z,25.30
2019-05-02T03:40:58.816Z,25.70
2019-05-02T03:42:02.917Z,26.00
2019-05-02T03:42:58.816Z,25.70
2019-05-02T03:44:10.485Z,26.10
2019-05-02T03:45:04.344Z,24.60
2019-05-02T03:45:58.982Z,26.70
2019-05-02T03:47:02.099Z,26.40
2019-05-02T03:47:58.873Z,26.20
2019-05-02T03:49:06.826Z,25.80
2019-05-02T03:49:58.893Z,26.90
2019-05-02T03:50:58.925Z,25.30
2019-05-02T03:52:02.526Z,26.10
2019-05-02T03:52:58.999Z,26.80
2019-05-02T03:54:07.493Z,25.20
2019-05-02T03:54:58.940Z,27.10
2019-05-02T03:56:10.813Z,27.00
2019-05-02T03:56:59.011Z,26.60
2019-05-02T03:57:59.001Z,25.20
2019-05-02T03:58:58.987Z,25.80
2019-05-02T03:59:59.068Z,25.90
2019-05-02T04:01:01.704Z,26.60
2019-05-02T04:01:59.166Z,25.90
2019-05-02T04:05:00.457Z,26.00
2019-05-02T04:05:59.088Z,26.30
2019-05-02T04:07:01.047Z,26.10
2019-05-02T04:07:59.108Z,26.50
2019-05-02T04:09:00.452Z,27.20
2019-05-02T04:11:00.049Z,25.20
2019-05-02T04:11:59.250Z,26.10
2019-05-02T04:12:59.951Z,25.90
2019-05-02T04:13:59.167Z,26.50
2019-05-02T04:14:59.184Z,25.60
2019-05-02T04:15:59.204Z,27.90
2019-05-02T04:16:59.215Z,25.40
2019-05-02T04:17:59.254Z,27.30
2019-05-02T04:18:59.253Z,27.10
2019-05-02T04:19:59.273Z,26.60
2019-05-02T04:20:59.259Z,26.10
2019-05-02T04:22:01.632Z,26.20
2019-05-02T04:22:59.280Z,25.80
2019-05-02T04:24:59.714Z,25.90
2019-05-02T04:25:59.478Z,26.70
2019-05-02T04:26:59.345Z,25.00
2019-05-02T04:27:59.351Z,25.50
2019-05-02T04:28:59.531Z,26.70
2019-05-02T04:30:10.277Z,27.70
2019-05-02T04:30:59.484Z,26.10
2019-05-02T04:32:04.548Z,26.50
2019-05-02T04:32:59.512Z,27.50
2019-05-02T04:33:59.474Z,26.50
2019-05-02T04:34:59.940Z,26.60
2019-05-02T04:36:00.686Z,27.90
2019-05-02T04:38:02.703Z,25.60
2019-05-02T04:39:05.877Z,26.90
2019-05-02T04:40:03.028Z,25.90
2019-05-02T04:41:00.138Z,26.10
2019-05-02T04:42:05.231Z,25.80
2019-05-02T04:43:07.030Z,25.80
2019-05-02T04:44:01.606Z,25.70
2019-05-02T04:45:14.143Z,26.10
2019-05-02T04:46:00.384Z,24.50
2019-05-02T04:47:09.950Z,24.90
2019-05-02T04:48:03.895Z,23.70
2019-05-02T04:48:59.749Z,24.60
2019-05-02T04:49:59.739Z,26.00
2019-05-02T04:51:09.974Z,23.90
2019-05-02T04:52:06.916Z,24.50
2019-05-02T04:53:00.421Z,24.30
2019-05-02T04:53:59.756Z,24.60
2019-05-02T04:55:08.141Z,24.20
2019-05-02T04:56:04.305Z,25.00
2019-05-02T04:57:02.418Z,25.40
2019-05-02T04:58:01.798Z,24.90
2019-05-02T04:59:01.981Z,24.80
2019-05-02T05:00:06.263Z,24.70
2019-05-02T05:01:01.792Z,22.90
2019-05-02T05:02:01.263Z,22.30
2019-05-02T05:04:03.139Z,22.90
2019-05-02T05:04:59.846Z,22.00
2019-05-02T05:06:07.266Z,23.30
2019-05-02T05:07:01.137Z,22.00
2019-05-02T05:08:00.701Z,22.50
2019-05-02T05:09:04.114Z,22.70
2019-05-02T05:10:03.018Z,23.20
2019-05-02T05:14:00.401Z,22.50
2019-05-02T05:15:00.477Z,24.20
2019-05-02T05:16:03.030Z,23.40
2019-05-02T05:17:00.049Z,22.80
2019-05-02T05:19:00.186Z,25.30
2019-05-02T05:20:00.270Z,25.20
2019-05-02T05:20:59.980Z,26.00
2019-05-02T05:22:04.932Z,25.90
2019-05-02T05:22:59.992Z,24.90
2019-05-02T05:24:01.448Z,25.90
2019-05-02T05:25:00.012Z,25.30
2019-05-02T05:26:03.437Z,26.30
2019-05-02T05:27:00.281Z,25.80
2019-05-02T05:29:00.097Z,25.50
2019-05-02T05:30:08.483Z,26.40
2019-05-02T05:31:00.096Z,26.50
2019-05-02T05:32:05.285Z,26.30
2019-05-02T05:33:00.319Z,25.50
2019-05-02T05:34:00.301Z,25.20
2019-05-02T05:35:03.491Z,24.10
2019-05-02T05:36:01.186Z,25.80
2019-05-02T05:37:03.627Z,25.60
2019-05-02T05:40:00.462Z,25.70
2019-05-02T05:41:02.949Z,24.30
2019-05-02T05:42:01.189Z,25.70
2019-05-02T05:43:02.720Z,25.00
2019-05-02T05:44:01.199Z,24.80
2019-05-02T05:45:03.943Z,25.00
2019-05-02T05:46:09.067Z,25.30
2019-05-02T05:48:01.196Z,24.60
2019-05-02T05:49:00.311Z,25.20
2019-05-02T05:50:01.186Z,25.00
2019-05-02T05:51:00.345Z,25.80
2019-05-02T05:52:03.800Z,25.40
2019-05-02T05:53:00.353Z,26.70
2019-05-02T05:54:03.059Z,25.90
2019-05-02T05:55:00.375Z,24.80
2019-05-02T05:56:02.497Z,25.50
2019-05-02T05:57:00.411Z,26.20
2019-05-02T05:58:07.640Z,25.60
2019-05-02T05:59:00.432Z,24.70
2019-05-02T06:00:03.689Z,26.90
2019-05-02T06:01:00.464Z,26.70
2019-05-02T06:02:00.484Z,26.00
2019-05-02T06:03:10.754Z,27.20
2019-05-02T06:04:00.719Z,26.50
2019-05-02T06:05:03.747Z,27.90
2019-05-02T06:06:00.936Z,26.90
2019-05-02T06:07:03.154Z,25.80
2019-05-02T06:08:00.551Z,26.20
2019-05-02T06:09:00.622Z,25.80
2019-05-02T06:11:00.734Z,27.90
2019-05-02T06:13:05.330Z,26.70
2019-05-02T06:15:01.888Z,27.90
2019-05-02T06:16:03.022Z,27.80
2019-05-02T06:17:00.740Z,27.10
2019-05-02T06:18:04.718Z,26.60
2019-05-02T06:19:00.758Z,28.60
2019-05-02T06:20:00.881Z,28.10
2019-05-02T06:22:01.410Z,29.00
2019-05-02T06:25:00.736Z,28.80
2019-05-02T06:26:00.762Z,28.30
2019-05-02T06:27:01.171Z,30.00
2019-05-02T06:28:05.261Z,31.00
2019-05-02T06:29:00.815Z,30.20
2019-05-02T06:30:01.495Z,29.90
2019-05-02T06:31:02.243Z,29.70
2019-05-02T06:32:00.909Z,28.80
2019-05-02T06:33:00.848Z,29.70
2019-05-02T06:34:02.034Z,29.90
2019-05-02T06:35:02.050Z,29.60
2019-05-02T06:36:02.316Z,29.70
2019-05-02T06:37:02.402Z,29.50
2019-05-02T06:40:03.277Z,26.50
2019-05-02T06:42:01.130Z,27.80
2019-05-02T06:44:01.008Z,26.90
2019-05-02T06:45:01.117Z,28.50
2019-05-02T06:46:01.348Z,28.00
2019-05-02T06:47:04.296Z,28.30
2019-05-02T06:48:01.326Z,28.60
2019-05-02T06:50:02.716Z,28.00
2019-05-02T06:51:01.651Z,27.00
2019-05-02T06:52:01.553Z,29.70
2019-05-02T06:53:04.398Z,28.80
2019-05-02T06:54:01.110Z,28.40
2019-05-02T06:55:01.122Z,27.10
2019-05-02T06:56:01.124Z,27.70
2019-05-02T06:57:01.189Z,27.90
2019-05-02T06:58:02.930Z,27.10
2019-05-02T06:59:01.206Z,27.60
2019-05-02T07:00:01.557Z,28.90
2019-05-02T07:01:02.936Z,27.30
2019-05-02T07:02:01.472Z,28.50
2019-05-02T07:03:05.077Z,27.30
2019-05-02T07:04:04.234Z,28.90
2019-05-02T07:05:01.823Z,30.70
2019-05-02T07:08:06.303Z,30.00
2019-05-02T07:09:01.947Z,29.00
2019-05-02T07:10:01.398Z,30.20
2019-05-02T07:11:03.133Z,27.80
2019-05-02T07:12:01.831Z,27.00
2019-05-02T07:13:10.041Z,29.60
2019-05-02T07:14:12.647Z,29.40
2019-05-02T07:15:03.490Z,27.80
2019-05-02T07:17:01.616Z,31.40
2019-05-02T07:19:01.758Z,29.60
2019-05-02T07:20:03.855Z,29.70
2019-05-02T07:22:04.381Z,29.10
2019-05-02T07:23:01.458Z,30.40
2019-05-02T07:24:01.956Z,30.90
2019-05-02T07:25:06.352Z,30.40
2019-05-02T07:26:03.349Z,30.70
2019-05-02T07:27:02.725Z,31.40
2019-05-02T07:28:04.603Z,31.40
2019-05-02T07:29:01.612Z,31.10
2019-05-02T07:30:01.674Z,30.80
2019-05-02T07:31:06.519Z,33.20
2019-05-02T07:32:02.275Z,32.70
2019-05-02T07:33:02.453Z,31.20
2019-05-02T07:34:01.795Z,30.10
2019-05-02T07:35:01.864Z,32.20
2019-05-02T07:36:02.635Z,32.20
2019-05-02T07:37:01.919Z,33.20
2019-05-02T07:38:03.154Z,31.70
2019-05-02T07:39:05.115Z,32.30
2019-05-02T07:40:02.369Z,33.00
2019-05-02T07:41:02.108Z,32.10
2019-05-02T07:42:05.764Z,33.20
2019-05-02T07:43:01.748Z,31.80
2019-05-02T07:44:04.362Z,33.10
2019-05-02T07:45:04.298Z,32.70
2019-05-02T07:46:02.051Z,32.20
2019-05-02T07:47:02.476Z,33.30
2019-05-02T07:49:02.008Z,33.30
2019-05-02T07:51:02.550Z,32.40
2019-05-02T07:53:04.362Z,31.80
2019-05-02T07:55:02.626Z,32.40
2019-05-02T07:56:02.403Z,30.60
2019-05-02T07:57:02.396Z,32.10
2019-05-02T07:58:06.772Z,34.00
2019-05-02T07:59:02.080Z,33.90
2019-05-02T08:00:02.712Z,33.50
2019-05-02T08:01:01.970Z,34.70
2019-05-02T08:02:01.997Z,32.70
2019-05-02T08:03:04.966Z,34.10
2019-05-02T08:05:02.444Z,34.50
2019-05-02T08:06:02.023Z,34.30
2019-05-02T08:07:02.028Z,35.60
2019-05-02T08:08:02.227Z,34.60
2019-05-02T08:09:07.299Z,34.60
2019-05-02T08:10:02.082Z,34.80
2019-05-02T08:11:03.270Z,34.20
2019-05-02T08:12:02.142Z,36.00
2019-05-02T08:13:02.133Z,35.60
2019-05-02T08:14:02.127Z,35.30
2019-05-02T08:15:02.133Z,33.50
2019-05-02T08:16:02.149Z,35.10
2019-05-02T08:17:05.704Z,34.60
2019-05-02T08:18:02.200Z,32.70
2019-05-02T08:19:05.552Z,33.50
2019-05-02T08:20:05.033Z,34.60
2019-05-02T08:21:02.248Z,34.40
2019-05-02T08:22:04.676Z,33.80
2019-05-02T08:23:02.360Z,33.90
2019-05-02T08:24:03.616Z,34.30
2019-05-02T08:25:04.220Z,33.00
2019-05-02T08:26:02.294Z,33.20
2019-05-02T08:29:02.370Z,33.00
2019-05-02T08:30:04.360Z,34.30
2019-05-02T08:31:03.177Z,33.20
2019-05-02T08:32:02.479Z,34.10
2019-05-02T08:33:02.619Z,33.20
2019-05-02T08:34:05.777Z,31.70
2019-05-02T08:35:03.293Z,32.80
2019-05-02T08:36:02.428Z,32.30
2019-05-02T08:37:04.917Z,32.00
2019-05-02T08:38:02.855Z,30.60
2019-05-02T08:39:02.484Z,32.50
2019-05-02T08:40:05.430Z,31.60
2019-05-02T08:41:02.491Z,32.20
2019-05-02T08:43:08.634Z,30.40
2019-05-02T08:44:02.535Z,29.50
2019-05-02T08:45:03.189Z,31.20
2019-05-02T08:46:02.566Z,31.70
2019-05-02T08:47:02.563Z,31.40
2019-05-02T08:48:05.134Z,30.10
2019-05-02T08:49:02.711Z,30.50
2019-05-02T08:50:02.618Z,30.90
2019-05-02T08:51:02.661Z,30.90
2019-05-02T08:53:02.776Z,29.10
2019-05-02T08:54:02.849Z,29.80
2019-05-02T08:55:04.291Z,31.50
2019-05-02T08:56:02.698Z,31.10
2019-05-02T08:57:04.085Z,29.10
2019-05-02T08:59:02.744Z,29.20
2019-05-02T09:00:02.864Z,30.70
2019-05-02T09:01:03.203Z,30.90
2019-05-02T09:02:04.140Z,31.30
2019-05-02T09:03:04.762Z,30.90
2019-05-02T09:04:03.104Z,29.00
2019-05-02T09:05:04.585Z,30.50
2019-05-02T09:06:05.980Z,28.10
2019-05-02T09:07:02.889Z,28.90
2019-05-02T09:08:02.892Z,30.10
2019-05-02T09:09:02.889Z,30.80
2019-05-02T09:10:05.645Z,32.20
2019-05-02T09:11:03.128Z,31.70
2019-05-02T09:12:12.073Z,31.00
2019-05-02T09:14:02.966Z,31.10
2019-05-02T09:15:02.968Z,31.00
2019-05-02T09:16:05.866Z,29.90
2019-05-02T09:18:03.004Z,29.40
2019-05-02T09:19:03.171Z,30.30
2019-05-02T09:20:10.284Z,31.10
2019-05-02T09:21:03.422Z,30.60
2019-05-02T09:22:07.605Z,31.80
2019-05-02T09:23:03.084Z,30.20
2019-05-02T09:24:03.079Z,30.30
2019-05-02T09:25:03.189Z,29.50
2019-05-02T09:26:03.128Z,29.70
2019-05-02T09:27:03.406Z,29.80
2019-05-02T09:28:03.183Z,29.90
2019-05-02T09:29:05.424Z,29.40
2019-05-02T09:30:03.344Z,29.60
2019-05-02T09:31:06.638Z,28.70
2019-05-02T09:32:04.517Z,29.20
2019-05-02T09:33:06.465Z,29.80
2019-05-02T09:34:03.262Z,27.70
2019-05-02T09:35:06.150Z,27.60
2019-05-02T09:36:03.534Z,30.60
2019-05-02T09:37:03.317Z,27.50
2019-05-02T09:38:03.283Z,27.60
2019-05-02T09:39:03.700Z,28.80
2019-05-02T09:40:06.816Z,29.00
2019-05-02T09:41:16.093Z,29.80
2019-05-02T09:42:06.711Z,30.70
2019-05-02T09:43:04.831Z,30.40
2019-05-02T09:45:03.388Z,27.50
2019-05-02T09:46:07.223Z,29.90
2019-05-02T09:48:07.566Z,30.30
2019-05-02T09:49:10.687Z,29.70
2019-05-02T09:50:03.649Z,29.10
2019-05-02T09:51:11.451Z,31.10
2019-05-02T09:52:03.795Z,30.20
2019-05-02T09:53:03.550Z,29.60
2019-05-02T09:54:06.384Z,29.30
2019-05-02T09:55:03.537Z,30.70
2019-05-02T09:56:03.620Z,29.90
2019-05-02T09:57:03.564Z,30.80
2019-05-02T09:59:23.370Z,29.80
2019-05-02T10:00:03.625Z,30.80
2019-05-02T10:01:03.649Z,30.00
2019-05-02T10:02:03.617Z,33.00
2019-05-02T10:03:04.499Z,30.30
2019-05-02T10:04:03.652Z,31.60
2019-05-02T10:05:03.669Z,30.50
2019-05-02T10:06:08.224Z,28.60
2019-05-02T10:07:03.839Z,29.60
2019-05-02T10:08:07.305Z,29.90
2019-05-02T10:09:03.723Z,29.60
2019-05-02T10:10:06.581Z,30.90
2019-05-02T10:11:03.745Z,27.10
2019-05-02T10:12:03.769Z,29.00
2019-05-02T10:13:03.787Z,30.50
2019-05-02T10:14:03.948Z,28.30
2019-05-02T10:15:03.824Z,26.90
2019-05-02T10:16:03.906Z,29.70
2019-05-02T10:17:07.169Z,27.40
2019-05-02T10:18:11.084Z,27.30
2019-05-02T10:19:09.257Z,29.70
2019-05-02T10:20:04.567Z,28.30
2019-05-02T10:22:03.899Z,28.70
2019-05-02T10:23:04.311Z,29.50
2019-05-02T10:24:03.969Z,29.30
2019-05-02T10:25:04.271Z,28.30
2019-05-02T10:26:04.081Z,27.90
2019-05-02T10:27:08.367Z,28.30
2019-05-02T10:28:04.037Z,27.40
2019-05-02T10:29:08.056Z,28.90
2019-05-02T10:30:11.830Z,28.20
2019-05-02T10:31:04.085Z,28.30
2019-05-02T10:32:07.671Z,27.70
2019-05-02T10:33:04.151Z,27.90
2019-05-02T10:34:08.504Z,27.50
2019-05-02T10:35:04.155Z,27.30
2019-05-02T10:36:04.171Z,26.70
2019-05-02T10:38:04.680Z,25.80
2019-05-02T10:39:04.159Z,27.30
2019-05-02T10:40:07.863Z,27.10
2019-05-02T10:41:04.930Z,26.00
2019-05-02T10:42:04.193Z,25.10
2019-05-02T10:43:04.198Z,26.10
2019-05-02T10:44:04.674Z,26.30
2019-05-02T10:45:07.464Z,27.00
2019-05-02T10:46:04.298Z,26.20
2019-05-02T10:47:04.318Z,26.30
2019-05-02T10:48:04.362Z,27.30
2019-05-02T10:49:04.753Z,26.20
2019-05-02T10:50:04.343Z,26.30
2019-05-02T10:51:04.360Z,26.10
2019-05-02T10:52:04.362Z,26.00
2019-05-02T10:54:04.374Z,25.60
2019-05-02T10:55:04.390Z,25.10
2019-05-02T10:56:04.684Z,26.10
2019-05-02T10:57:04.397Z,25.40
2019-05-02T10:58:04.421Z,25.60
2019-05-02T10:59:04.439Z,25.00
2019-05-02T11:00:04.456Z,25.30
2019-05-02T11:01:04.492Z,24.50
2019-05-02T11:02:06.348Z,23.80
2019-05-02T11:03:04.752Z,24.90
2019-05-02T11:05:04.565Z,24.70
2019-05-02T11:06:07.600Z,24.00
2019-05-02T11:07:04.572Z,25.20
2019-05-02T11:08:06.278Z,23.30
2019-05-02T11:09:06.452Z,23.00
2019-05-02T11:10:06.758Z,22.60
2019-05-02T11:11:06.205Z,21.60
2019-05-02T11:12:04.616Z,22.20
2019-05-02T11:13:05.190Z,22.10
2019-05-02T11:14:05.881Z,22.60
2019-05-02T11:15:04.712Z,22.40
2019-05-02T11:16:04.742Z,22.70
2019-05-02T11:17:09.074Z,22.10
2019-05-02T11:18:04.726Z,20.70
2019-05-02T11:19:04.765Z,21.20
2019-05-02T11:20:04.833Z,21.00
2019-05-02T11:21:08.256Z,21.90
2019-05-02T11:22:04.780Z,21.20
2019-05-02T11:23:04.789Z,21.20
2019-05-02T11:24:04.820Z,21.30
2019-05-02T11:25:05.643Z,21.70
2019-05-02T11:26:05.003Z,20.80
2019-05-02T11:28:07.059Z,19.80
2019-05-02T11:29:04.873Z,18.00
2019-05-02T11:30:04.877Z,18.70
2019-05-02T11:31:06.855Z,19.40
2019-05-02T11:32:04.920Z,18.90
2019-05-02T11:33:04.998Z,19.30
2019-05-02T11:34:04.938Z,19.80
2019-05-02T11:35:04.952Z,19.20
2019-05-02T11:36:05.163Z,18.30
2019-05-02T11:37:04.986Z,19.30
2019-05-02T11:38:05.126Z,18.00
2019-05-02T11:39:14.933Z,19.10
2019-05-02T11:40:06.672Z,18.50
2019-05-02T11:41:05.120Z,18.80
2019-05-02T11:42:05.124Z,18.80
2019-05-02T11:43:06.755Z,19.90
2019-05-02T11:45:05.322Z,20.10
2019-05-02T11:46:07.270Z,19.20
2019-05-02T11:47:05.826Z,18.60
2019-05-02T11:48:09.183Z,17.60
2019-05-02T11:49:05.192Z,17.70
2019-05-02T11:50:05.216Z,17.40
2019-05-02T11:51:07.420Z,18.70
2019-05-02T11:52:05.324Z,18.70
2019-05-02T11:53:09.229Z,18.30
2019-05-02T11:54:09.292Z,16.70
2019-05-02T11:55:05.267Z,17.30
2019-05-02T11:56:07.508Z,17.40
2019-05-02T11:57:05.285Z,17.70
2019-05-02T11:58:08.321Z,17.30
2019-05-02T11:59:05.325Z,17.30
2019-05-02T12:00:08.869Z,16.40
2019-05-02T12:01:05.581Z,17.20
2019-05-02T12:02:09.444Z,17.20
2019-05-02T12:03:05.560Z,16.40
2019-05-02T12:04:07.702Z,18.00
2019-05-02T12:05:05.411Z,18.30
2019-05-02T12:06:10.884Z,18.60
2019-05-02T12:07:05.445Z,18.70
2019-05-02T12:08:08.133Z,18.00
2019-05-02T12:09:05.538Z,18.10
2019-05-02T12:10:05.485Z,17.80
2019-05-02T12:11:08.384Z,17.80
2019-05-02T12:12:05.523Z,18.80
2019-05-02T12:13:06.613Z,18.80
2019-05-02T12:14:05.557Z,18.10
2019-05-02T12:16:08.431Z,19.40
2019-05-02T12:17:05.729Z,18.00
2019-05-02T12:18:05.685Z,19.00
2019-05-02T12:19:11.264Z,18.70
2019-05-02T12:21:06.496Z,17.80
2019-05-02T12:22:07.231Z,17.60
2019-05-02T12:23:05.707Z,18.10
2019-05-02T12:24:05.721Z,18.50
2019-05-02T12:25:05.730Z,19.60
2019-05-02T12:26:05.791Z,19.20
2019-05-02T12:27:06.014Z,19.70
2019-05-02T12:28:06.599Z,19.60
2019-05-02T12:29:05.829Z,18.20
2019-05-02T12:30:05.811Z,17.90
2019-05-02T12:31:08.030Z,17.20
2019-05-02T12:32:05.850Z,17.70
2019-05-02T12:33:05.986Z,19.00
2019-05-02T12:34:05.866Z,16.30
2019-05-02T12:35:05.896Z,16.90
2019-05-02T12:36:05.984Z,17.10
2019-05-02T12:37:05.890Z,18.10
2019-05-02T12:38:05.919Z,17.00
2019-05-02T12:39:05.939Z,18.20
2019-05-02T12:40:05.952Z,19.40
2019-05-02T12:41:19.284Z,17.00
2019-05-02T12:43:06.071Z,18.10
2019-05-02T12:44:06.009Z,17.20
2019-05-02T12:45:06.194Z,18.30
2019-05-02T12:46:06.041Z,18.20
2019-05-02T12:47:06.131Z,18.70
2019-05-02T12:48:06.240Z,18.90
2019-05-02T12:49:06.174Z,19.20
2019-05-02T12:50:06.109Z,19.20
2019-05-02T12:52:06.429Z,18.50
2019-05-02T12:53:06.769Z,19.80
2019-05-02T12:54:06.186Z,19.40
2019-05-02T12:56:06.206Z,20.60
2019-05-02T12:57:06.423Z,21.80
2019-05-02T12:58:06.285Z,21.30
2019-05-02T12:59:06.655Z,18.40
2019-05-02T13:00:06.260Z,17.10
2019-05-02T13:01:06.270Z,18.50
2019-05-02T13:02:06.335Z,18.10
2019-05-02T13:03:06.310Z,19.50
2019-05-02T13:05:06.337Z,19.10
2019-05-02T13:06:06.405Z,20.10
2019-05-02T13:07:06.391Z,20.10
2019-05-02T13:08:06.391Z,19.80
2019-05-02T13:09:07.477Z,21.10
2019-05-02T13:10:06.414Z,20.10
2019-05-02T13:11:06.886Z,20.40
2019-05-02T13:12:06.444Z,20.50
2019-05-02T13:13:06.480Z,19.90
2019-05-02T13:14:15.745Z,18.90
2019-05-02T13:15:07.073Z,18.70
2019-05-02T13:16:08.241Z,17.90
2019-05-02T13:18:06.553Z,18.70
2019-05-02T13:19:06.538Z,17.80
2019-05-02T13:20:06.797Z,17.80
2019-05-02T13:21:08.061Z,17.60
2019-05-02T13:24:07.237Z,17.90
2019-05-02T13:25:06.786Z,20.10
2019-05-02T13:26:16.032Z,19.10
2019-05-02T13:27:06.802Z,19.80
2019-05-02T13:28:06.669Z,19.70
2019-05-02T13:29:06.686Z,19.80
2019-05-02T13:30:06.741Z,20.50
2019-05-02T13:31:06.786Z,21.60
2019-05-02T13:32:08.826Z,22.60
2019-05-02T13:33:06.778Z,21.30
2019-05-02T13:34:11.943Z,21.00
2019-05-02T13:35:07.015Z,22.10
2019-05-02T13:36:06.808Z,21.50
2019-05-02T13:38:06.867Z,21.20
2019-05-02T13:39:06.964Z,22.10
2019-05-02T13:40:08.069Z,21.90
2019-05-02T13:42:07.415Z,21.60
2019-05-02T13:43:06.947Z,21.10
2019-05-02T13:44:06.975Z,22.00
2019-05-02T13:45:07.264Z,21.40
2019-05-02T13:46:07.153Z,21.70
2019-05-02T13:48:07.436Z,21.90
2019-05-02T13:49:06.984Z,21.60
2019-05-02T13:50:07.002Z,21.50
2019-05-02T13:51:07.021Z,21.50
2019-05-02T13:52:07.053Z,22.00
2019-05-02T13:53:07.289Z,25.80
2019-05-02T13:55:07.315Z,28.90
2019-05-02T13:56:07.090Z,29.80
2019-05-02T13:58:07.130Z,28.50
2019-05-02T13:59:10.456Z,31.10
2019-05-02T14:00:07.145Z,32.00
2019-05-02T14:01:07.151Z,29.30